Time;durP1;ratioP1;P1;durP2;ratioP2;P2;SDS_P1;SDS_P2;PMS_P1;PMS_P2;Temp;Humidity;BMP_temperature;BMP_pressure;BME280_temperature;BME280_humidity;BME280_pressure;Samples;Min_cycle;Max_cycle;Signal;HPM_P1;HPM_P2
2022/01/03 00:01:05;;;;;;;9.13;6.20;;;;;;;;;;5035044;28;20474;-72
2022/01/03 00:03:31;;;;;;;8.88;6.90;;;;;;;;;;5040938;28;20032;-72
2022/01/03 00:05:58;;;;;;;9.30;8.13;;;;;;;;;;5032252;28;20037;-72
2022/01/03 00:08:24;;;;;;;11.48;8.20;;;;;;;;;;5036433;28;20033;-72
2022/01/03 00:10:52;;;;;;;10.48;7.95;;;;;;;;;;5033951;28;20041;-73
2022/01/03 00:13:20;;;;;;;7.38;5.53;;;;;;;;;;5030991;28;20090;-72
2022/01/03 00:15:47;;;;;;;6.20;3.92;;;;;;;;;;5027545;28;20014;-73
2022/01/03 00:18:13;;;;;;;5.95;3.75;;;;;;;;;;5033038;28;20078;-72
2022/01/03 00:20:40;;;;;;;7.47;4.90;;;;;;;;;;5029477;28;20021;-73
2022/01/03 00:23:07;;;;;;;7.18;4.93;;;;;;;;;;5036054;28;20033;-73
2022/01/03 00:25:41;;;;;;;9.13;6.28;;;;;;;;;;5039072;28;20032;-73
2022/01/03 00:28:12;;;;;;;10.98;7.20;;;;;;;;;;5034005;28;20018;-73
2022/01/03 00:30:38;;;;;;;8.80;6.68;;;;;;;;;;5028247;28;20040;-72
2022/01/03 00:33:04;;;;;;;8.57;6.45;;;;;;;;;;5032390;28;20045;-72
2022/01/03 00:35:32;;;;;;;8.38;6.05;;;;;;;;;;5036390;28;20028;-72
2022/01/03 00:38:00;;;;;;;8.05;5.75;;;;;;;;;;5033970;28;20028;-72
2022/01/03 00:40:26;;;;;;;8.88;5.80;;;;;;;;;;5035812;28;20065;-73
2022/01/03 00:42:53;;;;;;;7.72;6.45;;;;;;;;;;5014448;28;20713;-75
2022/01/03 00:45:19;;;;;;;11.05;7.57;;;;;;;;;;5030714;28;20024;-72
2022/01/03 00:47:47;;;;;;;10.43;6.93;;;;;;;;;;5025645;28;20029;-72
2022/01/03 00:50:15;;;;;;;12.13;7.72;;;;;;;;;;5031485;28;20037;-72
2022/01/03 00:52:42;;;;;;;11.40;8.35;;;;;;;;;;5030333;28;20598;-75
2022/01/03 00:55:08;;;;;;;10.70;8.85;;;;;;;;;;5035432;28;20025;-72
2022/01/03 00:57:40;;;;;;;12.70;8.23;;;;;;;;;;5037413;28;20021;-72
2022/01/03 01:00:06;;;;;;;;;;;;;;;;;;5036758;28;20033;-72
2022/01/03 01:02:39;;;;;;;13.02;9.65;;;;;;;;;;5035947;28;19909;-72
2022/01/03 01:05:06;;;;;;;11.82;9.85;;;;;;;;;;5035323;28;20021;-72
2022/01/03 01:07:32;;;;;;;12.95;9.68;;;;;;;;;;5038899;28;20103;-73
2022/01/03 01:10:04;;;;;;;14.20;9.00;;;;;;;;;;5042239;28;20037;-72
2022/01/03 01:12:30;;;;;;;12.93;8.77;;;;;;;;;;5029252;28;20024;-72
2022/01/03 01:14:56;;;;;;;11.30;9.10;;;;;;;;;;5034948;28;20029;-76
2022/01/03 01:17:26;;;;;;;12.10;8.52;;;;;;;;;;5038667;28;20433;-73
2022/01/03 01:19:52;;;;;;;13.27;9.85;;;;;;;;;;5032722;28;20545;-72
2022/01/03 01:22:20;;;;;;;13.90;9.38;;;;;;;;;;5029420;28;20041;-72
2022/01/03 01:24:58;;;;;;;13.98;9.93;;;;;;;;;;5019065;28;20905;-72
2022/01/03 01:30:11;;;;;;;12.35;10.52;;;;;;;;;;5031854;28;20080;-73
2022/01/03 01:32:41;;;;;;;14.60;10.65;;;;;;;;;;5039098;28;20025;-73
2022/01/03 01:35:08;;;;;;;11.73;9.23;;;;;;;;;;5039412;28;20117;-72
2022/01/03 01:37:35;;;;;;;9.27;6.82;;;;;;;;;;5037422;28;20025;-77
2022/01/03 01:40:01;;;;;;;5.50;4.65;;;;;;;;;;5027545;28;20038;-75
2022/01/03 01:42:27;;;;;;;5.90;3.53;;;;;;;;;;5032775;28;20120;-73
2022/01/03 01:44:54;;;;;;;4.63;4.00;;;;;;;;;;5034091;28;20025;-73
2022/01/03 01:47:21;;;;;;;8.27;4.90;;;;;;;;;;5032830;28;20528;-72
2022/01/03 01:49:48;;;;;;;8.82;7.43;;;;;;;;;;5029173;28;20034;-74
2022/01/03 01:52:24;;;;;;;9.57;7.28;;;;;;;;;;5027897;28;20013;-74
2022/01/03 01:55:11;;;;;;;10.07;8.18;;;;;;;;;;5034729;28;20020;-72
2022/01/03 01:57:40;;;;;;;10.80;8.50;;;;;;;;;;5030526;28;20304;-73
2022/01/03 02:00:07;;;;;;;11.43;9.05;;;;;;;;;;5034566;28;20033;-73
2022/01/03 02:02:37;;;;;;;15.15;9.90;;;;;;;;;;5040706;28;20120;-73
2022/01/03 02:05:03;;;;;;;14.23;10.45;;;;;;;;;;5033138;28;20072;-73
2022/01/03 02:07:34;;;;;;;12.43;9.15;;;;;;;;;;5029751;28;20021;-72
2022/01/03 02:10:10;;;;;;;10.52;7.95;;;;;;;;;;5023226;28;20065;-77
2022/01/03 02:12:48;;;;;;;12.27;8.85;;;;;;;;;;5015935;28;20028;-73
2022/01/03 02:15:15;;;;;;;13.43;7.30;;;;;;;;;;5010901;28;20030;-73
2022/01/03 02:17:44;;;;;;;5.93;5.05;;;;;;;;;;5009263;28;20055;-72
2022/01/03 02:20:12;;;;;;;4.10;2.88;;;;;;;;;;5025639;28;20069;-71
2022/01/03 02:22:38;;;;;;;4.13;1.90;;;;;;;;;;5029422;28;20057;-73
2022/01/03 02:25:08;;;;;;;2.65;1.48;;;;;;;;;;5035456;28;20083;-72
2022/01/03 02:27:35;;;;;;;2.20;1.40;;;;;;;;;;5031524;28;20079;-71
2022/01/03 02:30:02;;;;;;;10.73;6.40;;;;;;;;;;5015051;28;20048;-70
2022/01/03 02:32:28;;;;;;;15.23;7.10;;;;;;;;;;5032844;28;20025;-71
2022/01/03 02:34:55;;;;;;;11.75;8.73;;;;;;;;;;5028074;28;20345;-71
2022/01/03 02:37:23;;;;;;;12.65;9.45;;;;;;;;;;5026194;28;20028;-71
2022/01/03 02:39:49;;;;;;;13.13;9.27;;;;;;;;;;5032103;28;20529;-70
2022/01/03 02:42:15;;;;;;;7.35;5.95;;;;;;;;;;5012720;28;20595;-73
2022/01/03 02:44:43;;;;;;;4.20;2.55;;;;;;;;;;5031010;28;20111;-76
2022/01/03 02:47:09;;;;;;;2.60;1.70;;;;;;;;;;5036093;28;20059;-71
2022/01/03 02:49:35;;;;;;;3.05;1.30;;;;;;;;;;5037240;28;20033;-71
2022/01/03 02:52:02;;;;;;;8.20;6.25;;;;;;;;;;5033749;28;20025;-72
2022/01/03 02:54:28;;;;;;;9.65;8.05;;;;;;;;;;5032270;28;20029;-71
2022/01/03 02:56:54;;;;;;;11.90;9.35;;;;;;;;;;5034058;28;20196;-76
2022/01/03 02:59:20;;;;;;;10.23;8.63;;;;;;;;;;5028800;28;20029;-72
2022/01/03 03:01:48;;;;;;;13.15;9.23;;;;;;;;;;5033790;28;20031;-72
2022/01/03 03:04:14;;;;;;;16.42;10.90;;;;;;;;;;5035336;28;20094;-72
2022/01/03 03:06:41;;;;;;;15.63;10.65;;;;;;;;;;5030030;28;20031;-75
2022/01/03 03:09:08;;;;;;;12.52;10.13;;;;;;;;;;5037531;28;20055;-72
2022/01/03 03:11:35;;;;;;;13.45;9.88;;;;;;;;;;5032285;28;20103;-72
2022/01/03 03:14:02;;;;;;;14.05;9.20;;;;;;;;;;5032528;28;20098;-71
2022/01/03 03:16:28;;;;;;;13.73;9.18;;;;;;;;;;5016034;28;20036;-76
2022/01/03 03:18:55;;;;;;;12.32;8.98;;;;;;;;;;5030982;28;20071;-71
2022/01/03 03:21:21;;;;;;;14.30;9.65;;;;;;;;;;5032060;28;20048;-74
2022/01/03 03:23:47;;;;;;;9.95;8.15;;;;;;;;;;5026472;28;20021;-74
2022/01/03 03:26:14;;;;;;;13.32;9.60;;;;;;;;;;5029248;28;20026;-72
2022/01/03 03:28:40;;;;;;;11.40;8.68;;;;;;;;;;5033457;28;20032;-75
2022/01/03 03:31:06;;;;;;;12.50;9.15;;;;;;;;;;5033757;28;20025;-76
2022/01/03 03:33:32;;;;;;;11.00;8.88;;;;;;;;;;5033085;28;20609;-74
2022/01/03 03:35:59;;;;;;;11.57;8.05;;;;;;;;;;5024316;28;20461;-73
2022/01/03 03:38:26;;;;;;;10.32;6.97;;;;;;;;;;5033107;28;20516;-77
2022/01/03 03:40:53;;;;;;;10.80;6.50;;;;;;;;;;5030547;28;20051;-75
2022/01/03 03:43:20;;;;;;;9.63;7.00;;;;;;;;;;5026316;28;20094;-72
2022/01/03 03:45:48;;;;;;;8.82;6.60;;;;;;;;;;5027237;28;20224;-75
2022/01/03 03:48:14;;;;;;;7.13;6.22;;;;;;;;;;5027769;28;20034;-74
2022/01/03 03:50:40;;;;;;;8.02;6.38;;;;;;;;;;5013840;28;20102;-73
2022/01/03 03:53:06;;;;;;;7.93;5.25;;;;;;;;;;5032954;28;20367;-73
2022/01/03 03:55:33;;;;;;;6.30;5.30;;;;;;;;;;5033108;28;20239;-74
2022/01/03 03:58:00;;;;;;;7.25;5.28;;;;;;;;;;5032864;28;20105;-71
2022/01/03 04:00:27;;;;;;;6.35;5.32;;;;;;;;;;5030169;28;20029;-76
2022/01/03 04:02:53;;;;;;;6.70;5.03;;;;;;;;;;5025129;28;20030;-73
2022/01/03 04:05:19;;;;;;;7.00;4.78;;;;;;;;;;5017765;28;20346;-77
2022/01/03 04:07:46;;;;;;;5.72;3.90;;;;;;;;;;5019042;28;20021;-72
2022/01/03 04:10:15;;;;;;;4.05;3.15;;;;;;;;;;5019408;28;20517;-72
2022/01/03 04:12:41;;;;;;;3.72;2.28;;;;;;;;;;5035114;28;20059;-72
2022/01/03 04:15:08;;;;;;;3.03;1.80;;;;;;;;;;5027563;28;20106;-71
2022/01/03 04:17:34;;;;;;;2.92;2.13;;;;;;;;;;5014634;28;20029;-74
2022/01/03 04:20:00;;;;;;;4.45;2.40;;;;;;;;;;5027839;28;20449;-72
2022/01/03 04:22:27;;;;;;;5.35;3.25;;;;;;;;;;5021679;28;20045;-71
2022/01/03 04:24:53;;;;;;;5.65;4.35;;;;;;;;;;5036185;28;20033;-72
2022/01/03 04:27:19;;;;;;;6.25;4.45;;;;;;;;;;5046985;28;20026;-73
2022/01/03 04:29:45;;;;;;;6.18;3.30;;;;;;;;;;5020335;28;20083;-71
2022/01/03 04:32:12;;;;;;;6.45;4.57;;;;;;;;;;5028128;28;20029;-71
2022/01/03 04:34:38;;;;;;;7.10;5.30;;;;;;;;;;5024649;28;20111;-71
2022/01/03 04:37:04;;;;;;;6.45;4.55;;;;;;;;;;5025561;28;20079;-73
2022/01/03 04:39:30;;;;;;;6.75;4.18;;;;;;;;;;5037404;28;20033;-72
2022/01/03 04:41:56;;;;;;;9.35;3.50;;;;;;;;;;5056947;28;20477;-72
2022/01/03 04:44:22;;;;;;;4.10;3.15;;;;;;;;;;5065086;28;20562;-71
2022/01/03 04:46:49;;;;;;;3.20;2.25;;;;;;;;;;5065337;28;20032;-75
2022/01/03 04:49:15;;;;;;;5.50;2.67;;;;;;;;;;5062649;28;20032;-72
2022/01/03 04:51:41;;;;;;;3.97;2.90;;;;;;;;;;5045069;28;20551;-75
2022/01/03 04:54:07;;;;;;;3.80;2.60;;;;;;;;;;5038848;28;20036;-73
2022/01/03 04:56:34;;;;;;;4.38;2.53;;;;;;;;;;5045076;28;20060;-72
2022/01/03 04:59:00;;;;;;;4.45;3.00;;;;;;;;;;5044807;28;20032;-72
2022/01/03 05:01:26;;;;;;;7.75;5.30;;;;;;;;;;5044715;28;20025;-71
2022/01/03 05:03:53;;;;;;;7.03;5.45;;;;;;;;;;5043442;28;20068;-71
2022/01/03 05:06:19;;;;;;;9.10;6.30;;;;;;;;;;5044697;28;20051;-72
2022/01/03 05:08:46;;;;;;;10.07;6.22;;;;;;;;;;5026884;28;20054;-72
2022/01/03 05:11:12;;;;;;;6.80;5.22;;;;;;;;;;5043287;28;20025;-72
2022/01/03 05:13:38;;;;;;;6.50;5.13;;;;;;;;;;5044497;28;20028;-71
2022/01/03 05:16:05;;;;;;;5.45;4.10;;;;;;;;;;5044466;28;20025;-71
2022/01/03 05:18:31;;;;;;;5.32;3.63;;;;;;;;;;5038493;28;20413;-70
2022/01/03 05:20:57;;;;;;;4.40;3.22;;;;;;;;;;5049035;28;20049;-74
2022/01/03 05:23:24;;;;;;;4.75;2.40;;;;;;;;;;5064213;28;20532;-71
2022/01/03 05:25:50;;;;;;;4.15;2.50;;;;;;;;;;5064460;28;20020;-71
2022/01/03 05:28:17;;;;;;;3.03;2.03;;;;;;;;;;5064361;28;20039;-71
2022/01/03 05:30:43;;;;;;;4.05;2.70;;;;;;;;;;5057825;28;20637;-77
2022/01/03 05:33:10;;;;;;;3.75;2.40;;;;;;;;;;5039606;28;20545;-72
2022/01/03 05:35:36;;;;;;;5.05;2.55;;;;;;;;;;5041679;28;20029;-72
2022/01/03 05:38:02;;;;;;;3.40;2.00;;;;;;;;;;5026645;28;20033;-75
2022/01/03 05:40:28;;;;;;;2.95;2.20;;;;;;;;;;5022776;28;20397;-72
2022/01/03 05:42:54;;;;;;;4.13;2.80;;;;;;;;;;5030612;28;20037;-72
2022/01/03 05:45:21;;;;;;;3.22;2.42;;;;;;;;;;5023322;28;20144;-72
2022/01/03 05:47:47;;;;;;;3.88;2.30;;;;;;;;;;5041183;28;20082;-72
2022/01/03 05:50:16;;;;;;;3.03;2.00;;;;;;;;;;5041665;28;20472;-71
2022/01/03 05:52:42;;;;;;;3.20;2.20;;;;;;;;;;5017837;28;20034;-71
2022/01/03 05:55:08;;;;;;;3.40;2.42;;;;;;;;;;5014840;28;20310;-71
2022/01/03 05:57:34;;;;;;;4.38;2.30;;;;;;;;;;5033391;28;20025;-73
2022/01/03 06:00:03;;;;;;;3.92;2.53;;;;;;;;;;5021465;28;20034;-72
2022/01/03 06:02:34;;;;;;;2.95;1.85;;;;;;;;;;5029168;28;20500;-73
2022/01/03 06:05:02;;;;;;;2.47;1.85;;;;;;;;;;5041762;28;20100;-71
2022/01/03 06:07:28;;;;;;;3.08;1.80;;;;;;;;;;5040779;28;20454;-71
2022/01/03 06:09:54;;;;;;;2.10;1.70;;;;;;;;;;5039037;28;20039;-72
2022/01/03 06:12:20;;;;;;;3.65;1.83;;;;;;;;;;5026750;28;20441;-71
2022/01/03 06:14:47;;;;;;;2.10;1.60;;;;;;;;;;5032130;28;20022;-75
2022/01/03 06:17:14;;;;;;;3.47;1.80;;;;;;;;;;5008319;28;20168;-71
2022/01/03 06:19:41;;;;;;;2.33;1.80;;;;;;;;;;5026919;28;20036;-74
2022/01/03 06:22:09;;;;;;;1.95;1.58;;;;;;;;;;5015341;28;20050;-72
2022/01/03 06:24:36;;;;;;;2.47;1.83;;;;;;;;;;5019017;28;20041;-74
2022/01/03 06:27:02;;;;;;;6.70;1.98;;;;;;;;;;5020815;28;20380;-74
2022/01/03 06:29:28;;;;;;;4.13;1.70;;;;;;;;;;5002713;28;20045;-72
2022/01/03 06:31:55;;;;;;;3.05;1.35;;;;;;;;;;5028451;28;20078;-71
2022/01/03 06:34:21;;;;;;;2.28;1.58;;;;;;;;;;5040198;28;20170;-70
2022/01/03 06:36:47;;;;;;;2.28;1.63;;;;;;;;;;5027738;28;20028;-76
2022/01/03 06:39:13;;;;;;;2.83;1.60;;;;;;;;;;5020968;28;20194;-71
2022/01/03 06:41:41;;;;;;;3.47;1.58;;;;;;;;;;5019985;28;20113;-71
2022/01/03 06:44:07;;;;;;;2.38;1.67;;;;;;;;;;5015791;28;20104;-73
2022/01/03 06:46:33;;;;;;;2.40;1.60;;;;;;;;;;5021207;28;20260;-71
2022/01/03 06:49:00;;;;;;;3.20;1.50;;;;;;;;;;5040677;28;20122;-72
2022/01/03 06:51:31;;;;;;;2.72;1.58;;;;;;;;;;5050305;28;20028;-74
2022/01/03 06:53:57;;;;;;;1.73;1.40;;;;;;;;;;5047987;28;20029;-72
2022/01/03 06:56:23;;;;;;;2.88;1.70;;;;;;;;;;5020579;28;20033;-74
2022/01/03 06:58:50;;;;;;;2.97;1.67;;;;;;;;;;5040214;28;20025;-72
2022/01/03 07:01:17;;;;;;;1.95;1.50;;;;;;;;;;5040111;28;20140;-77
2022/01/03 07:03:43;;;;;;;2.13;1.58;;;;;;;;;;5040175;28;20507;-71
2022/01/03 07:06:09;;;;;;;3.30;2.30;;;;;;;;;;5038150;28;20388;-72
2022/01/03 07:08:35;;;;;;;7.18;3.58;;;;;;;;;;5037824;28;20033;-70
2022/01/03 07:11:01;;;;;;;5.30;3.28;;;;;;;;;;5039812;28;20041;-74
2022/01/03 07:13:30;;;;;;;6.10;2.38;;;;;;;;;;5022595;28;20029;-71
2022/01/03 07:18:57;;;;;;;2.97;1.52;;;;;;;;;;5023525;28;20035;-71
2022/01/03 07:21:26;;;;;;;2.47;1.70;;;;;;;;;;5034309;28;20126;-75
2022/01/03 07:23:53;;;;;;;6.63;3.72;;;;;;;;;;5005210;28;20287;-73
2022/01/03 07:26:19;;;;;;;9.02;4.88;;;;;;;;;;5020277;28;20033;-72
2022/01/03 07:28:46;;;;;;;8.95;4.85;;;;;;;;;;5039429;28;20024;-72
2022/01/03 07:31:12;;;;;;;7.65;3.42;;;;;;;;;;5036724;28;20029;-71
2022/01/03 07:33:38;;;;;;;2.85;2.35;;;;;;;;;;5035118;28;20029;-78
2022/01/03 07:36:04;;;;;;;5.47;2.60;;;;;;;;;;5019759;28;20162;-73
2022/01/03 07:38:30;;;;;;;4.90;2.85;;;;;;;;;;5020270;28;20067;-72
2022/01/03 07:40:57;;;;;;;5.30;3.15;;;;;;;;;;5038505;28;20032;-72
2022/01/03 07:43:24;;;;;;;5.15;3.65;;;;;;;;;;5038616;28;20489;-76
2022/01/03 07:45:50;;;;;;;5.88;4.30;;;;;;;;;;5037140;28;20124;-73
2022/01/03 07:48:16;;;;;;;6.68;5.03;;;;;;;;;;5035637;28;20082;-76
2022/01/03 07:50:42;;;;;;;10.85;6.82;;;;;;;;;;5038924;28;20060;-73
2022/01/03 07:53:08;;;;;;;11.05;6.10;;;;;;;;;;5037618;28;20081;-72
2022/01/03 07:55:34;;;;;;;11.30;6.38;;;;;;;;;;5027819;28;20057;-73
2022/01/03 07:58:02;;;;;;;14.73;6.82;;;;;;;;;;5019349;28;20044;-74
2022/01/03 08:00:29;;;;;;;10.75;6.20;;;;;;;;;;5032220;28;20040;-72
2022/01/03 08:02:55;;;;;;;8.52;6.10;;;;;;;;;;5039250;28;20443;-75
2022/01/03 08:05:22;;;;;;;10.02;5.63;;;;;;;;;;5039028;28;20432;-74
2022/01/03 08:07:48;;;;;;;14.98;6.15;;;;;;;;;;5037477;28;20299;-74
2022/01/03 08:10:15;;;;;;;16.15;4.90;;;;;;;;;;5041178;28;20311;-72
2022/01/03 08:12:42;;;;;;;7.38;4.93;;;;;;;;;;5055984;28;20029;-73
2022/01/03 08:15:08;;;;;;;11.48;5.47;;;;;;;;;;5062960;28;20025;-73
2022/01/03 08:17:35;;;;;;;5.22;3.53;;;;;;;;;;5062819;28;20108;-73
2022/01/03 08:20:02;;;;;;;14.85;8.25;;;;;;;;;;5046342;28;20330;-73
2022/01/03 08:22:28;;;;;;;17.27;8.20;;;;;;;;;;5042672;28;20161;-72
2022/01/03 08:24:54;;;;;;;13.32;8.55;;;;;;;;;;5039666;28;20304;-74
2022/01/03 08:27:21;;;;;;;13.23;8.05;;;;;;;;;;5042717;28;20052;-73
2022/01/03 08:29:47;;;;;;;6.88;4.82;;;;;;;;;;5040739;28;20068;-72
2022/01/03 08:32:13;;;;;;;8.57;4.60;;;;;;;;;;5034746;28;20043;-73
2022/01/03 08:34:39;;;;;;;9.27;5.57;;;;;;;;;;5040525;28;20120;-73
2022/01/03 08:37:06;;;;;;;6.72;4.72;;;;;;;;;;5032589;28;20024;-73
2022/01/03 08:39:32;;;;;;;5.07;3.53;;;;;;;;;;5029917;28;20025;-76
2022/01/03 08:41:58;;;;;;;5.50;4.43;;;;;;;;;;5033115;28;20185;-73
2022/01/03 08:44:24;;;;;;;4.78;3.75;;;;;;;;;;5036572;28;20251;-75
2022/01/03 08:46:51;;;;;;;5.18;4.15;;;;;;;;;;5028395;28;20025;-73
2022/01/03 08:49:17;;;;;;;6.32;4.65;;;;;;;;;;5037248;28;20452;-74
2022/01/03 08:51:43;;;;;;;7.72;4.60;;;;;;;;;;5031316;28;20100;-73
2022/01/03 08:54:10;;;;;;;4.00;3.30;;;;;;;;;;5030886;28;20129;-72
2022/01/03 08:56:36;;;;;;;3.20;2.55;;;;;;;;;;5035743;28;20025;-74
2022/01/03 08:59:03;;;;;;;3.78;1.90;;;;;;;;;;5031488;28;20036;-71
2022/01/03 09:01:29;;;;;;;5.95;2.25;;;;;;;;;;5030226;28;20036;-71
2022/01/03 09:03:55;;;;;;;3.22;2.30;;;;;;;;;;5035655;28;20033;-71
2022/01/03 09:06:22;;;;;;;2.88;1.83;;;;;;;;;;5026024;28;20215;-72
2022/01/03 09:08:48;;;;;;;3.13;2.22;;;;;;;;;;5033078;28;20478;-74
2022/01/03 09:11:14;;;;;;;4.15;2.40;;;;;;;;;;5031899;28;20084;-73
2022/01/03 09:13:41;;;;;;;3.33;2.10;;;;;;;;;;5028381;28;20549;-72
2022/01/03 09:16:07;;;;;;;3.42;1.70;;;;;;;;;;5036460;28;20051;-75
2022/01/03 09:18:38;;;;;;;4.00;1.60;;;;;;;;;;5023590;28;20020;-77
2022/01/03 09:21:04;;;;;;;2.30;1.60;;;;;;;;;;5032157;28;20033;-75
2022/01/03 09:23:35;;;;;;;2.00;1.58;;;;;;;;;;5032074;28;20431;-76
2022/01/03 09:28:49;;;;;;;1.85;1.60;;;;;;;;;;5026619;28;20098;-76
2022/01/03 09:31:15;;;;;;;2.60;1.80;;;;;;;;;;5036266;28;20036;-73
2022/01/03 09:33:42;;;;;;;3.45;1.70;;;;;;;;;;5036429;28;20570;-76
2022/01/03 09:36:08;;;;;;;3.17;2.00;;;;;;;;;;5026487;28;20136;-73
2022/01/03 09:38:38;;;;;;;3.13;1.90;;;;;;;;;;5030478;28;20025;-72
2022/01/03 09:41:05;;;;;;;4.22;2.90;;;;;;;;;;5031368;28;20482;-80
2022/01/03 09:43:41;;;;;;;6.35;2.50;;;;;;;;;;5034087;28;20443;-79
2022/01/03 09:46:10;;;;;;;7.03;2.78;;;;;;;;;;5036135;28;20029;-71
2022/01/03 09:48:38;;;;;;;7.03;2.03;;;;;;;;;;5010478;28;20396;-74
2022/01/03 09:51:05;;;;;;;3.53;1.90;;;;;;;;;;5040666;28;20040;-72
2022/01/03 09:53:33;;;;;;;2.55;1.90;;;;;;;;;;5039885;28;20458;-74
2022/01/03 09:56:00;;;;;;;5.07;2.05;;;;;;;;;;5024234;28;20038;-73
2022/01/03 09:58:27;;;;;;;3.65;2.42;;;;;;;;;;5037094;28;20469;-71
2022/01/03 10:00:54;;;;;;;3.53;2.30;;;;;;;;;;5030947;28;20589;-83
2022/01/03 10:03:21;;;;;;;4.45;2.42;;;;;;;;;;5030902;28;20021;-78
2022/01/03 10:05:47;;;;;;;3.50;2.50;;;;;;;;;;5031467;28;20825;-71
2022/01/03 10:08:13;;;;;;;5.70;3.72;;;;;;;;;;5035762;28;20100;-72
2022/01/03 10:10:39;;;;;;;6.13;3.92;;;;;;;;;;5034997;28;20041;-72
2022/01/03 10:13:06;;;;;;;6.63;3.72;;;;;;;;;;5037563;28;20021;-72
2022/01/03 10:15:32;;;;;;;5.63;3.28;;;;;;;;;;5030992;28;20041;-71
2022/01/03 10:17:58;;;;;;;4.28;2.85;;;;;;;;;;5037469;28;20030;-77
2022/01/03 10:20:29;;;;;;;4.18;2.60;;;;;;;;;;5033055;28;20033;-71
2022/01/03 10:23:08;;;;;;;5.80;2.97;;;;;;;;;;5023083;28;20134;-71
2022/01/03 10:25:35;;;;;;;3.50;2.60;;;;;;;;;;5042072;28;20029;-71
2022/01/03 10:28:04;;;;;;;3.63;1.98;;;;;;;;;;5041766;28;20083;-71
2022/01/03 10:30:45;;;;;;;5.53;2.22;;;;;;;;;;5025142;28;20235;-71
2022/01/03 10:33:15;;;;;;;1.95;1.52;;;;;;;;;;5043410;28;20487;-70
2022/01/03 10:35:42;;;;;;;2.28;1.42;;;;;;;;;;5041048;28;20025;-71
2022/01/03 10:38:09;;;;;;;1.83;1.45;;;;;;;;;;5017316;28;20033;-71
2022/01/03 10:40:35;;;;;;;2.35;1.73;;;;;;;;;;5020127;28;20193;-71
2022/01/03 10:43:19;;;;;;;2.25;1.52;;;;;;;;;;5021092;28;20043;-77
2022/01/03 10:45:45;;;;;;;2.47;1.70;;;;;;;;;;5023351;28;20022;-71
2022/01/03 10:48:34;;;;;;;1.63;1.42;;;;;;;;;;5040827;28;20021;-71
2022/01/03 10:51:01;;;;;;;2.30;1.67;;;;;;;;;;5041984;28;20067;-70
2022/01/03 10:53:35;;;;;;;2.25;1.77;;;;;;;;;;5041599;28;20013;-71
2022/01/03 10:56:20;;;;;;;4.53;2.10;;;;;;;;;;5037475;28;20503;-71
2022/01/03 10:58:46;;;;;;;6.43;3.78;;;;;;;;;;5038855;28;20051;-70
2022/01/03 11:01:22;;;;;;;4.53;2.80;;;;;;;;;;5014132;28;20024;-71
2022/01/03 11:03:49;;;;;;;14.63;8.48;;;;;;;;;;5032829;28;20397;-71
2022/01/03 11:11:44;;;;;;;7.25;3.78;;;;;;;;;;5042269;28;20129;-73
2022/01/03 11:14:11;;;;;;;4.95;3.03;;;;;;;;;;5042743;28;20029;-71
2022/01/03 11:16:42;;;;;;;3.28;2.15;;;;;;;;;;5035257;28;20036;-71
2022/01/03 11:19:11;;;;;;;5.30;2.40;;;;;;;;;;5029065;28;20028;-71
2022/01/03 11:21:44;;;;;;;3.42;2.38;;;;;;;;;;5041095;28;20048;-71
2022/01/03 11:24:11;;;;;;;3.92;2.67;;;;;;;;;;5051880;28;20040;-71
2022/01/03 11:26:47;;;;;;;3.05;2.53;;;;;;;;;;5059338;28;20028;-71
2022/01/03 11:29:13;;;;;;;2.97;2.03;;;;;;;;;;5047276;28;20033;-72
2022/01/03 11:31:40;;;;;;;3.58;2.35;;;;;;;;;;5041962;28;20043;-71
2022/01/03 11:34:10;;;;;;;4.95;2.10;;;;;;;;;;5051989;28;20066;-71
2022/01/03 11:36:37;;;;;;;2.55;1.90;;;;;;;;;;5043850;28;20361;-72
2022/01/03 11:39:08;;;;;;;2.65;2.17;;;;;;;;;;5062266;28;20024;-71
2022/01/03 11:41:35;;;;;;;3.00;1.85;;;;;;;;;;5038939;28;20043;-72
2022/01/03 11:44:02;;;;;;;3.58;2.40;;;;;;;;;;5022030;28;20055;-71
2022/01/03 11:46:28;;;;;;;3.88;2.30;;;;;;;;;;5035232;28;20013;-71
2022/01/03 11:48:54;;;;;;;2.88;2.10;;;;;;;;;;5024753;28;20056;-72
2022/01/03 11:51:22;;;;;;;3.83;2.00;;;;;;;;;;5029852;28;20617;-72
2022/01/03 11:53:49;;;;;;;2.65;1.95;;;;;;;;;;5022056;28;20029;-72
2022/01/03 11:56:17;;;;;;;2.38;1.80;;;;;;;;;;5028070;28;20027;-75
2022/01/03 12:03:37;;;;;;;3.17;2.05;;;;;;;;;;5026691;28;20033;-71
2022/01/03 12:04:56;;;;;;;5.28;2.20;;;;;;;;;;5011022;28;20490;-73
2022/01/03 12:07:22;;;;;;;2.20;1.85;;;;;;;;;;5027832;28;20029;-71
2022/01/03 12:09:50;;;;;;;4.55;2.10;;;;;;;;;;5034366;28;20080;-71
2022/01/03 12:12:44;;;;;;;4.65;2.20;;;;;;;;;;5011036;28;20914;-72
2022/01/03 12:15:34;;;;;;;2.50;2.13;;;;;;;;;;5022454;28;20037;-71
2022/01/03 12:18:01;;;;;;;3.35;1.70;;;;;;;;;;5036360;28;20597;-71
2022/01/03 12:20:41;;;;;;;2.13;1.70;;;;;;;;;;5030980;28;20152;-73
2022/01/03 12:23:08;;;;;;;2.20;1.67;;;;;;;;;;5023341;28;20051;-71
2022/01/03 12:25:36;;;;;;;2.63;1.75;;;;;;;;;;5035383;28;20033;-72
2022/01/03 12:28:04;;;;;;;2.08;1.40;;;;;;;;;;5033458;28;20030;-72
2022/01/03 12:30:31;;;;;;;1.85;1.42;;;;;;;;;;5027301;28;20041;-73
2022/01/03 12:33:06;;;;;;;5.35;1.65;;;;;;;;;;5038523;28;20024;-74
2022/01/03 12:35:34;;;;;;;2.13;1.48;;;;;;;;;;5020558;28;20605;-71
2022/01/03 12:38:03;;;;;;;4.32;2.90;;;;;;;;;;5036309;28;20452;-71
2022/01/03 12:40:31;;;;;;;2.63;1.27;;;;;;;;;;5023416;28;20040;-71
2022/01/03 12:42:57;;;;;;;2.75;1.35;;;;;;;;;;5042696;28;20032;-71
2022/01/03 12:45:29;;;;;;;1.85;1.40;;;;;;;;;;5007480;28;20026;-72
2022/01/03 12:47:55;;;;;;;;;;;;;;;;;;5050281;28;20029;-72
2022/01/03 12:50:25;;;;;;;1.52;1.15;;;;;;;;;;5048509;28;19955;-72
2022/01/03 12:52:54;;;;;;;1.73;1.30;;;;;;;;;;5037581;28;20099;-72
2022/01/03 12:55:38;;;;;;;1.50;1.10;;;;;;;;;;5051270;28;20110;-71
2022/01/03 12:58:04;;;;;;;2.17;1.42;;;;;;;;;;5043231;28;20040;-72
2022/01/03 13:00:41;;;;;;;1.60;1.15;;;;;;;;;;5058767;28;20016;-71
2022/01/03 13:03:27;;;;;;;2.55;1.27;;;;;;;;;;5042902;28;20121;-71
2022/01/03 13:06:13;;;;;;;1.95;1.30;;;;;;;;;;5063989;28;20033;-72
2022/01/03 13:08:41;;;;;;;6.13;1.40;;;;;;;;;;5032069;28;20025;-72
2022/01/03 13:11:12;;;;;;;2.10;1.27;;;;;;;;;;5028365;28;20038;-71
2022/01/03 13:13:39;;;;;;;3.55;1.50;;;;;;;;;;5025087;28;20086;-77
2022/01/03 13:16:22;;;;;;;1.77;1.30;;;;;;;;;;5026228;28;20041;-75
2022/01/03 13:18:50;;;;;;;2.88;1.30;;;;;;;;;;5025384;28;20091;-72
2022/01/03 13:21:17;;;;;;;4.55;1.30;;;;;;;;;;5022656;28;20106;-73
2022/01/03 13:23:57;;;;;;;3.50;1.20;;;;;;;;;;5009502;28;20033;-72
2022/01/03 13:26:23;;;;;;;2.45;1.77;;;;;;;;;;5023716;28;20032;-74
2022/01/03 13:28:50;;;;;;;3.92;1.63;;;;;;;;;;5021942;28;20018;-71
2022/01/03 13:31:17;;;;;;;2.30;1.88;;;;;;;;;;5021869;28;20533;-76
2022/01/03 13:33:43;;;;;;;2.28;1.60;;;;;;;;;;5021918;28;20026;-72
2022/01/03 13:36:14;;;;;;;2.15;1.60;;;;;;;;;;5001806;28;20851;-73
2022/01/03 13:38:41;;;;;;;3.40;1.30;;;;;;;;;;5021469;28;20642;-72
2022/01/03 13:41:15;;;;;;;2.40;1.40;;;;;;;;;;5021512;28;20029;-73
2022/01/03 13:43:45;;;;;;;3.13;1.20;;;;;;;;;;5023929;28;20040;-76
2022/01/03 13:49:12;;;;;;;2.72;1.23;;;;;;;;;;5037793;28;20052;-71
2022/01/03 13:51:44;;;;;;;2.83;1.30;;;;;;;;;;5003379;28;20537;-72
2022/01/03 13:54:20;;;;;;;2.13;1.30;;;;;;;;;;5017876;28;20025;-73
2022/01/03 13:56:47;;;;;;;1.83;1.58;;;;;;;;;;5021461;28;20222;-75
2022/01/03 13:59:13;;;;;;;2.13;1.30;;;;;;;;;;5022452;28;20025;-72
2022/01/03 14:01:39;;;;;;;2.67;1.30;;;;;;;;;;5004592;28;20521;-75
2022/01/03 14:04:05;;;;;;;1.92;1.27;;;;;;;;;;5005103;28;20029;-75
2022/01/03 14:06:32;;;;;;;2.10;1.33;;;;;;;;;;5022445;28;20025;-73
2022/01/03 14:08:58;;;;;;;2.22;1.40;;;;;;;;;;5030782;28;20044;-74
2022/01/03 14:11:26;;;;;;;2.80;1.30;;;;;;;;;;5002520;28;20060;-73
2022/01/03 14:13:53;;;;;;;1.92;1.20;;;;;;;;;;5024558;28;20014;-73
2022/01/03 14:16:22;;;;;;;1.92;1.35;;;;;;;;;;5021285;28;20029;-72
2022/01/03 14:18:50;;;;;;;3.17;1.23;;;;;;;;;;5020784;28;20029;-73
2022/01/03 14:21:30;;;;;;;8.48;1.80;;;;;;;;;;5022064;28;20029;-74
2022/01/03 14:24:06;;;;;;;3.78;1.30;;;;;;;;;;5009425;28;20041;-73
2022/01/03 14:26:33;;;;;;;4.55;1.38;;;;;;;;;;5027032;28;20021;-73
2022/01/03 14:29:07;;;;;;;2.40;1.48;;;;;;;;;;5020604;28;20036;-74
2022/01/03 14:31:43;;;;;;;2.13;1.23;;;;;;;;;;5029048;28;20485;-73
2022/01/03 14:34:09;;;;;;;1.80;1.25;;;;;;;;;;5001434;28;20037;-74
2022/01/03 14:36:40;;;;;;;4.53;1.40;;;;;;;;;;5000412;28;20512;-77
2022/01/03 14:39:06;;;;;;;1.90;1.20;;;;;;;;;;5020242;28;20029;-74
2022/01/03 14:41:32;;;;;;;4.18;1.80;;;;;;;;;;5020324;28;20417;-74
2022/01/03 14:44:00;;;;;;;3.78;1.30;;;;;;;;;;5021865;28;20581;-73
2022/01/03 14:46:32;;;;;;;5.78;1.50;;;;;;;;;;5019815;28;20029;-73
2022/01/03 14:48:58;;;;;;;;;;;;;;;;;;5019916;28;20099;-74
2022/01/03 14:51:33;;;;;;;3.75;1.67;;;;;;;;;;5020381;28;20596;-73
2022/01/03 14:54:31;;;;;;;1.52;1.05;;;;;;;;;;5019877;28;20869;-73
2022/01/03 14:56:57;;;;;;;1.50;1.15;;;;;;;;;;5004537;28;20079;-77
2022/01/03 14:59:30;;;;;;;4.05;2.05;;;;;;;;;;5021205;28;20025;-76
2022/01/03 15:01:57;;;;;;;3.15;1.70;;;;;;;;;;5021311;28;20544;-76
2022/01/03 15:04:26;;;;;;;3.53;1.58;;;;;;;;;;5022583;28;20029;-75
2022/01/03 15:06:53;;;;;;;4.25;2.10;;;;;;;;;;5021624;28;20266;-74